createdAt,value
2022-08-19T00:00:08.433Z,375.9990
2022-08-19T00:00:19.636Z,374.2840
2022-08-19T00:00:30.862Z,375.9990
2022-08-19T00:00:42.033Z,373.8570
2022-08-19T00:00:53.233Z,381.2650
2022-08-19T00:01:04.439Z,376.8630
2022-08-19T00:01:15.482Z,382.7970
2022-08-19T00:01:32.592Z,373.4320
2022-08-19T00:01:53.445Z,367.1640
2022-08-19T00:02:04.962Z,362.2990
2022-08-19T00:02:16.113Z,365.1210
2022-08-19T00:02:27.312Z,368.8140
2022-08-19T00:02:38.512Z,368.4000
2022-08-19T00:02:55.743Z,364.7150
2022-08-19T00:03:07.044Z,365.1210
2022-08-19T00:03:18.191Z,366.7530
2022-08-19T00:03:29.244Z,367.9870
2022-08-19T00:03:40.323Z,368.8140
2022-08-19T00:03:51.383Z,370.0620
2022-08-19T00:04:02.465Z,370.0620
2022-08-19T00:04:13.556Z,369.2290
2022-08-19T00:04:24.774Z,372.1610
2022-08-19T00:04:36.037Z,373.0070
2022-08-19T00:04:47.187Z,373.0070
2022-08-19T00:04:58.409Z,373.4320
2022-08-19T00:05:09.434Z,373.8570
2022-08-19T00:05:20.502Z,373.4320
2022-08-19T00:05:31.633Z,373.8570
2022-08-19T00:05:42.693Z,373.8570
2022-08-19T00:05:53.742Z,375.9990
2022-08-19T00:06:04.803Z,373.0070
2022-08-19T00:06:15.864Z,375.1390
2022-08-19T00:06:29.912Z,374.7110
2022-08-19T00:06:41.072Z,375.1390
2022-08-19T00:06:52.272Z,374.7110
2022-08-19T00:07:03.482Z,374.7110
2022-08-19T00:07:14.673Z,374.2840
2022-08-19T00:07:25.881Z,377.2960
2022-08-19T00:07:36.913Z,376.4310
2022-08-19T00:07:47.978Z,377.7310
2022-08-19T00:07:59.153Z,377.7310
2022-08-19T00:08:10.192Z,379.9620
2022-08-19T00:08:21.233Z,380.1790
2022-08-19T00:08:32.433Z,380.1790
2022-08-19T00:08:43.632Z,380.3950
2022-08-19T00:08:54.704Z,378.1660
2022-08-19T00:09:05.770Z,384.5640
2022-08-19T00:09:16.913Z,380.6130
2022-08-19T00:09:28.113Z,382.7970
2022-08-19T00:09:39.314Z,375.9990
2022-08-19T00:09:50.399Z,378.1660
2022-08-19T00:10:01.463Z,380.6130
2022-08-19T00:10:12.562Z,380.8300
2022-08-19T00:10:23.622Z,376.8630
2022-08-19T00:10:34.674Z,377.7310
2022-08-19T00:10:45.878Z,381.2650
2022-08-19T00:10:56.947Z,382.7970
2022-08-19T00:11:08.143Z,379.9620
2022-08-19T00:11:25.474Z,374.2840
2022-08-19T00:11:37.312Z,374.2840
2022-08-19T00:11:48.372Z,373.0070
2022-08-19T00:11:59.472Z,375.1390
2022-08-19T00:12:10.543Z,376.8630
2022-08-19T00:12:21.593Z,375.5690
2022-08-19T00:12:32.632Z,375.1390
2022-08-19T00:12:46.956Z,375.9990
2022-08-19T00:13:00.794Z,369.2290
2022-08-19T00:13:11.985Z,373.4320
2022-08-19T00:13:23.183Z,370.0620
2022-08-19T00:13:34.222Z,374.7110
2022-08-19T00:13:45.273Z,373.8570
2022-08-19T00:13:56.544Z,374.7110
2022-08-19T00:14:07.619Z,379.5290
2022-08-19T00:14:18.822Z,376.8630
2022-08-19T00:14:29.902Z,377.7310
2022-08-19T00:14:40.954Z,375.1390
2022-08-19T00:14:52.183Z,373.8570
2022-08-19T00:15:03.262Z,377.7310
2022-08-19T00:15:14.314Z,380.1790
2022-08-19T00:15:25.422Z,379.9620
2022-08-19T00:15:36.625Z,381.9200
2022-08-19T00:15:47.823Z,375.5690
2022-08-19T00:15:59.024Z,377.7310
2022-08-19T00:16:10.222Z,381.0480
2022-08-19T00:16:25.242Z,381.0480
2022-08-19T00:16:38.383Z,375.1390
2022-08-19T00:16:49.448Z,373.8570
2022-08-19T00:17:00.513Z,375.1390
2022-08-19T00:17:11.663Z,375.5690
2022-08-19T00:17:22.703Z,376.4310
2022-08-19T00:17:33.752Z,375.9990
2022-08-19T00:17:44.944Z,380.3950
2022-08-19T00:17:56.012Z,375.1390
2022-08-19T00:18:07.063Z,378.1660
2022-08-19T00:18:18.153Z,380.6130
2022-08-19T00:18:29.233Z,375.9990
2022-08-19T00:18:40.303Z,381.0480
2022-08-19T00:18:51.503Z,384.1200
2022-08-19T00:19:02.542Z,381.4840
2022-08-19T00:19:13.600Z,380.1790
2022-08-19T00:19:24.783Z,381.4840
2022-08-19T00:19:35.996Z,376.4310
2022-08-19T00:19:47.023Z,381.9200
2022-08-19T00:19:58.102Z,382.3580
2022-08-19T00:20:09.262Z,381.0480
2022-08-19T00:20:20.302Z,383.2370
2022-08-19T00:20:31.342Z,383.4580
2022-08-19T00:20:42.571Z,382.7970
2022-08-19T00:20:53.743Z,383.6780
2022-08-19T00:21:04.829Z,384.5640
2022-08-19T00:21:15.915Z,384.3420
2022-08-19T00:21:27.023Z,384.1200
2022-08-19T00:21:38.223Z,385.0080
2022-08-19T00:21:49.423Z,384.5640
2022-08-19T00:22:00.468Z,384.5640
2022-08-19T00:22:11.531Z,385.0080
2022-08-19T00:22:22.633Z,385.2300
2022-08-19T00:22:33.673Z,383.4580
2022-08-19T00:22:44.783Z,382.7970
2022-08-19T00:22:55.982Z,384.1200
2022-08-19T00:23:07.033Z,385.4530
2022-08-19T00:23:18.103Z,384.7850
2022-08-19T00:23:29.263Z,383.0170
2022-08-19T00:23:40.302Z,385.8990
2022-08-19T00:23:51.344Z,384.3420
2022-08-19T00:24:02.542Z,384.5640
2022-08-19T00:24:13.613Z,384.1200
2022-08-19T00:24:24.676Z,384.7850
2022-08-19T00:24:35.823Z,384.1200
2022-08-19T00:24:50.875Z,383.8990
2022-08-19T00:25:02.387Z,377.7310
2022-08-19T00:25:13.589Z,381.2650
2022-08-19T00:25:29.953Z,377.7310
2022-08-19T00:25:41.784Z,373.8570
2022-08-19T00:25:53.291Z,374.2840
2022-08-19T00:26:04.342Z,376.4310
2022-08-19T00:26:15.572Z,377.7310
2022-08-19T00:26:26.662Z,376.4310
2022-08-19T00:26:37.748Z,377.7310
2022-08-19T00:26:48.792Z,375.9990
2022-08-19T00:27:24.895Z,382.3580
2022-08-19T00:27:26.532Z,375.5690
2022-08-19T00:27:33.743Z,367.5750
2022-08-19T00:27:44.793Z,368.4000
2022-08-19T00:27:55.853Z,367.1640
2022-08-19T00:28:06.912Z,371.7390
2022-08-19T00:28:17.983Z,372.1610
2022-08-19T00:28:29.102Z,371.7390
2022-08-19T00:28:40.172Z,374.7110
2022-08-19T00:28:51.234Z,373.4320
2022-08-19T00:29:02.274Z,375.5690
2022-08-19T00:29:13.312Z,373.4320
2022-08-19T00:29:24.453Z,376.8630
2022-08-19T00:29:35.662Z,377.7310
2022-08-19T00:29:46.871Z,374.7110
2022-08-19T00:30:03.871Z,371.3190
2022-08-19T00:30:15.023Z,370.0620
2022-08-19T00:30:26.222Z,372.1610
2022-08-19T00:30:37.423Z,373.4320
2022-08-19T00:30:48.484Z,374.2840
2022-08-19T00:30:59.503Z,374.2840
2022-08-19T00:31:11.066Z,375.1390
2022-08-19T00:31:22.223Z,374.7110
2022-08-19T00:31:33.430Z,375.1390
2022-08-19T00:31:44.625Z,374.2840
2022-08-19T00:31:55.826Z,373.4320
2022-08-19T00:32:06.874Z,378.1660
2022-08-19T00:32:21.871Z,373.8570
2022-08-19T00:32:32.943Z,370.0620
2022-08-19T00:32:45.150Z,373.4320
2022-08-19T00:32:56.224Z,374.2840
2022-08-19T00:33:07.282Z,373.0070
2022-08-19T00:33:18.383Z,375.1390
2022-08-19T00:33:29.462Z,372.1610
2022-08-19T00:33:41.824Z,375.5690
2022-08-19T00:33:52.944Z,375.9990
2022-08-19T00:34:03.993Z,375.1390
2022-08-19T00:34:15.033Z,377.7310
2022-08-19T00:34:26.223Z,375.9990
2022-08-19T00:34:37.284Z,373.4320
2022-08-19T00:34:48.349Z,375.9990
2022-08-19T00:34:59.512Z,377.7310
2022-08-19T00:35:10.612Z,377.2960
2022-08-19T00:35:21.722Z,377.7310
2022-08-19T00:35:32.782Z,377.7310
2022-08-19T00:35:43.833Z,376.4310
2022-08-19T00:35:56.258Z,377.7310
2022-08-19T00:36:07.430Z,380.1790
2022-08-19T00:36:18.473Z,376.8630
2022-08-19T00:36:29.516Z,376.4310
2022-08-19T00:36:40.622Z,381.4840
2022-08-19T00:36:51.832Z,377.7310
2022-08-19T00:37:03.024Z,376.4310
2022-08-19T00:37:14.062Z,382.5780
2022-08-19T00:37:25.110Z,377.7310
2022-08-19T00:37:36.332Z,378.1660
2022-08-19T00:37:47.504Z,381.9200
2022-08-19T00:37:58.703Z,382.7970
2022-08-19T00:38:09.917Z,381.9200
2022-08-19T00:38:34.962Z,382.1390
2022-08-19T00:38:38.376Z,375.9990
2022-08-19T00:38:49.642Z,375.1390
2022-08-19T00:39:00.788Z,374.7110
2022-08-19T00:39:11.982Z,373.4320
2022-08-19T00:39:23.072Z,376.4310
2022-08-19T00:39:34.207Z,381.0480
2022-08-19T00:39:45.313Z,381.9200
2022-08-19T00:40:00.419Z,373.8570
2022-08-19T00:40:11.587Z,375.5690
2022-08-19T00:40:22.742Z,374.7110
2022-08-19T00:40:33.802Z,375.9990
2022-08-19T00:40:44.902Z,376.4310
2022-08-19T00:40:56.112Z,376.4310
2022-08-19T00:41:07.181Z,377.2960
2022-08-19T00:41:18.246Z,374.2840
2022-08-19T00:41:29.401Z,375.9990
2022-08-19T00:41:40.457Z,375.1390
2022-08-19T00:41:51.506Z,382.3580
2022-08-19T00:42:02.565Z,381.2650
2022-08-19T00:42:15.670Z,377.7310
2022-08-19T00:42:27.026Z,375.9990
2022-08-19T00:42:38.193Z,376.8630
2022-08-19T00:42:49.407Z,379.7460
2022-08-19T00:43:00.606Z,375.9990
2022-08-19T00:43:11.803Z,374.2840
2022-08-19T00:43:22.861Z,380.6130
2022-08-19T00:43:33.922Z,376.8630
2022-08-19T00:43:44.972Z,383.0170
2022-08-19T00:43:56.041Z,380.3950
2022-08-19T00:44:07.099Z,375.5690
2022-08-19T00:44:18.163Z,379.9620
2022-08-19T00:44:29.242Z,375.9990
2022-08-19T00:44:40.314Z,378.1660
2022-08-19T00:44:51.379Z,383.6780
2022-08-19T00:45:02.524Z,383.4580
2022-08-19T00:45:13.761Z,377.2960
2022-08-19T00:45:24.811Z,377.7310
2022-08-19T00:45:36.647Z,381.7020
2022-08-19T00:45:48.012Z,376.8630
2022-08-19T00:45:59.176Z,378.1660
2022-08-19T00:46:10.226Z,380.6130
2022-08-19T00:46:21.266Z,376.8630
2022-08-19T00:46:32.457Z,377.2960
2022-08-19T00:46:43.645Z,382.1390
2022-08-19T00:46:58.012Z,380.3950
2022-08-19T00:47:11.020Z,374.2840
2022-08-19T00:47:26.585Z,370.4800
2022-08-19T00:47:38.706Z,369.6450
2022-08-19T00:47:49.761Z,370.0620
2022-08-19T00:48:00.829Z,372.1610
2022-08-19T00:48:14.812Z,372.5840
2022-08-19T00:48:26.385Z,370.8990
2022-08-19T00:48:37.594Z,370.0620
2022-08-19T00:48:48.641Z,372.1610
2022-08-19T00:48:59.711Z,370.8990
2022-08-19T00:49:10.782Z,371.7390
2022-08-19T00:49:21.832Z,373.4320
2022-08-19T00:49:32.882Z,371.3190
2022-08-19T00:49:43.955Z,373.8570
2022-08-19T00:49:55.018Z,371.7390
2022-08-19T00:50:06.201Z,374.7110
2022-08-19T00:50:17.453Z,371.7390
2022-08-19T00:50:28.502Z,373.4320
2022-08-19T00:50:39.561Z,373.4320
2022-08-19T00:50:56.618Z,373.8570
2022-08-19T00:51:07.681Z,372.5840
2022-08-19T00:51:18.762Z,370.0620
2022-08-19T00:51:29.826Z,373.0070
2022-08-19T00:51:40.872Z,373.4320
2022-08-19T00:51:51.948Z,375.5690
2022-08-19T00:52:03.001Z,374.2840
2022-08-19T00:52:14.206Z,375.1390
2022-08-19T00:52:25.406Z,375.9990
2022-08-19T00:52:36.445Z,370.4800
2022-08-19T00:52:47.555Z,374.2840
2022-08-19T00:52:58.582Z,373.8570
2022-08-19T00:53:09.615Z,373.4320
2022-08-19T00:53:22.727Z,373.4320
2022-08-19T00:53:33.762Z,373.4320
2022-08-19T00:53:44.822Z,375.9990
2022-08-19T00:53:55.871Z,375.1390
2022-08-19T00:54:06.946Z,376.8630
2022-08-19T00:54:18.045Z,375.5690
2022-08-19T00:54:31.280Z,377.2960
2022-08-19T00:54:42.387Z,374.2840
2022-08-19T00:54:53.566Z,373.4320
2022-08-19T00:55:04.784Z,375.9990
2022-08-19T00:55:15.962Z,374.2840
2022-08-19T00:55:27.049Z,377.7310
2022-08-19T00:55:38.112Z,377.7310
2022-08-19T00:55:49.245Z,376.4310
2022-08-19T00:56:02.501Z,372.5840
2022-08-19T00:56:13.567Z,373.4320
2022-08-19T00:56:24.791Z,377.7310
2022-08-19T00:56:35.858Z,376.8630
2022-08-19T00:56:46.901Z,373.4320
2022-08-19T00:56:58.058Z,375.9990
2022-08-19T00:57:09.241Z,377.2960
2022-08-19T00:57:20.442Z,377.2960
2022-08-19T00:57:31.643Z,375.9990
2022-08-19T00:57:42.843Z,373.4320
2022-08-19T00:57:54.045Z,374.2840
2022-08-19T00:58:05.257Z,374.7110
2022-08-19T00:58:16.436Z,377.7310
2022-08-19T00:58:27.657Z,374.7110
2022-08-19T00:58:38.841Z,378.1660
2022-08-19T00:58:49.898Z,377.2960
2022-08-19T00:59:00.961Z,380.1790
2022-08-19T00:59:12.121Z,377.7310
2022-08-19T00:59:56.446Z,372.5840
2022-08-19T01:00:00.499Z,376.8630
2022-08-19T01:00:02.689Z,368.8140
2022-08-19T01:00:14.220Z,361.8990
2022-08-19T01:00:25.417Z,363.9060
2022-08-19T01:00:36.643Z,365.1210
2022-08-19T01:00:47.692Z,365.9350
2022-08-19T01:00:58.764Z,367.9870
2022-08-19T01:01:09.910Z,367.9870
2022-08-19T01:01:23.426Z,367.5750
2022-08-19T01:01:34.515Z,367.9870
2022-08-19T01:01:45.646Z,370.0620
2022-08-19T01:01:56.736Z,369.2290
2022-08-19T01:02:07.814Z,369.2290
2022-08-19T01:02:19.001Z,370.4800
2022-08-19T01:02:30.208Z,371.3190
2022-08-19T01:02:41.403Z,370.8990
2022-08-19T01:02:52.764Z,373.0070
2022-08-19T01:03:03.883Z,371.7390
2022-08-19T01:03:14.932Z,372.1610
2022-08-19T01:03:25.982Z,371.7390
2022-08-19T01:03:56.491Z,371.7390
2022-08-19T01:03:57.542Z,365.1210
2022-08-19T01:04:09.725Z,360.7050
2022-08-19T01:04:20.924Z,364.3100
2022-08-19T01:04:32.125Z,363.5030
2022-08-19T01:04:43.165Z,367.1640
2022-08-19T01:04:54.214Z,365.9350
2022-08-19T01:05:05.402Z,365.9350
2022-08-19T01:05:16.605Z,365.1210
2022-08-19T01:05:27.808Z,365.9350
2022-08-19T01:05:39.032Z,366.7530
2022-08-19T01:05:50.082Z,369.6450
2022-08-19T01:06:01.142Z,370.8990
2022-08-19T01:06:12.282Z,369.2290
2022-08-19T01:06:23.489Z,371.3190
2022-08-19T01:06:34.690Z,370.0620
2022-08-19T01:06:45.887Z,369.6450
2022-08-19T01:06:57.083Z,370.8990
2022-08-19T01:07:08.130Z,367.5750
2022-08-19T01:07:19.597Z,372.1610
2022-08-19T01:07:35.753Z,370.4800
2022-08-19T01:07:48.006Z,366.7530
2022-08-19T01:07:59.168Z,367.1640
2022-08-19T01:08:10.362Z,365.9350
2022-08-19T01:08:21.565Z,368.4000
2022-08-19T01:08:32.762Z,365.9350
2022-08-19T01:08:43.965Z,368.4000
2022-08-19T01:08:55.012Z,368.8140
2022-08-19T01:09:06.064Z,370.8990
2022-08-19T01:09:17.245Z,371.7390
2022-08-19T01:09:28.442Z,372.5840
2022-08-19T01:09:39.644Z,372.1610
2022-08-19T01:09:50.854Z,372.5840
2022-08-19T01:10:02.048Z,373.4320
2022-08-19T01:10:13.254Z,369.6450
2022-08-19T01:10:24.442Z,370.4800
2022-08-19T01:10:36.927Z,370.8990
2022-08-19T01:10:48.280Z,370.8990
2022-08-19T01:10:59.321Z,375.9990
2022-08-19T01:11:10.362Z,374.2840
2022-08-19T01:11:22.737Z,370.8990
2022-08-19T01:11:33.884Z,369.6450
2022-08-19T01:11:44.921Z,373.4320
2022-08-19T01:11:55.962Z,371.7390
2022-08-19T01:12:07.170Z,372.1610
2022-08-19T01:12:18.362Z,374.2840
2022-08-19T01:12:29.571Z,373.0070
2022-08-19T01:12:40.764Z,375.1390
2022-08-19T01:12:52.011Z,373.0070
2022-08-19T01:13:03.122Z,378.1660
2022-08-19T01:13:14.162Z,375.5690
2022-08-19T01:13:25.246Z,375.9990
2022-08-19T01:13:49.375Z,375.1390
2022-08-19T01:13:53.408Z,371.3190
2022-08-19T01:14:04.606Z,369.6450
2022-08-19T01:14:15.802Z,372.5840
2022-08-19T01:14:27.007Z,372.1610
2022-08-19T01:14:38.204Z,371.7390
2022-08-19T01:14:49.251Z,370.0620
2022-08-19T01:15:00.321Z,374.2840
2022-08-19T01:15:11.488Z,375.5690
2022-08-19T01:15:22.684Z,375.9990
2022-08-19T01:15:33.885Z,375.5690
2022-08-19T01:15:44.933Z,370.8990
2022-08-19T01:15:56.001Z,375.1390
2022-08-19T01:16:07.156Z,374.7110
2022-08-19T01:16:18.370Z,373.4320
2022-08-19T01:16:29.561Z,373.4320
2022-08-19T01:16:40.763Z,373.4320
2022-08-19T01:16:51.964Z,373.8570
2022-08-19T01:17:03.009Z,373.8570
2022-08-19T01:17:14.047Z,375.1390
2022-08-19T01:17:25.100Z,376.4310
2022-08-19T01:17:36.161Z,376.4310
2022-08-19T01:17:47.203Z,375.9990
2022-08-19T01:17:58.261Z,376.4310
2022-08-19T01:18:09.401Z,373.8570
2022-08-19T01:18:20.602Z,375.9990
2022-08-19T01:18:31.808Z,376.8630
2022-08-19T01:18:43.001Z,373.4320
2022-08-19T01:18:54.199Z,375.9990
2022-08-19T01:19:05.403Z,375.1390
2022-08-19T01:19:16.606Z,378.1660
2022-08-19T01:19:27.804Z,375.9990
2022-08-19T01:19:44.087Z,377.2960
2022-08-19T01:19:55.954Z,371.3190
2022-08-19T01:20:07.170Z,371.3190
2022-08-19T01:20:18.363Z,370.8990
2022-08-19T01:20:29.412Z,371.3190
2022-08-19T01:20:40.482Z,373.0070
2022-08-19T01:20:51.551Z,372.5840
2022-08-19T01:21:03.842Z,374.2840
2022-08-19T01:21:15.007Z,371.7390
2022-08-19T01:21:26.048Z,371.7390
2022-08-19T01:21:37.086Z,370.8990
2022-08-19T01:21:48.290Z,375.1390
2022-08-19T01:21:59.484Z,374.7110
2022-08-19T01:22:16.636Z,370.0620
2022-08-19T01:22:33.300Z,369.6450
2022-08-19T01:22:44.926Z,365.9350
2022-08-19T01:22:55.971Z,362.6990
2022-08-19T01:23:07.012Z,367.1640
2022-08-19T01:23:18.206Z,363.9060
2022-08-19T01:23:29.402Z,369.2290
2022-08-19T01:23:40.610Z,368.8140
2022-08-19T01:23:51.809Z,369.6450
2022-08-19T01:24:03.011Z,366.7530
2022-08-19T01:24:14.073Z,369.2290
2022-08-19T01:24:25.131Z,366.7530
2022-08-19T01:24:36.283Z,369.6450
2022-08-19T01:24:53.249Z,363.5030
2022-08-19T01:25:08.851Z,365.1210
2022-08-19T01:25:23.367Z,359.9140
2022-08-19T01:25:37.762Z,360.3090
2022-08-19T01:25:50.572Z,357.9510
2022-08-19T01:26:01.612Z,361.1020
2022-08-19T01:26:12.702Z,361.1020
2022-08-19T01:26:23.832Z,363.1000
2022-08-19T01:26:35.006Z,364.3100
2022-08-19T01:26:48.801Z,360.7050
2022-08-19T01:27:00.049Z,364.3100
2022-08-19T01:27:11.163Z,365.1210
2022-08-19T01:27:22.369Z,365.1210
2022-08-19T01:27:35.382Z,365.9350
2022-08-19T01:27:50.532Z,363.5030
2022-08-19T01:28:10.703Z,359.1260
2022-08-19T01:28:34.223Z,353.3250
2022-08-19T01:28:40.301Z,352.5660
2022-08-19T01:28:53.616Z,351.8100
2022-08-19T01:29:05.209Z,352.5660
2022-08-19T01:29:16.653Z,353.3250
2022-08-19T01:29:27.870Z,351.8100
2022-08-19T01:29:39.372Z,354.4710
2022-08-19T01:29:52.881Z,356.0090
2022-08-19T01:30:03.973Z,354.8540
2022-08-19T01:30:15.177Z,356.7830
2022-08-19T01:30:26.368Z,360.3090
2022-08-19T01:30:37.565Z,358.7340
2022-08-19T01:30:50.922Z,360.3090
2022-08-19T01:31:07.917Z,359.5200
2022-08-19T01:31:27.329Z,352.5660
2022-08-19T01:31:36.480Z,352.9450
2022-08-19T01:31:47.643Z,355.6230
2022-08-19T01:31:58.851Z,356.3960
2022-08-19T01:32:10.046Z,354.8540
2022-08-19T01:32:33.850Z,354.0880
2022-08-19T01:32:43.965Z,349.5610
2022-08-19T01:32:55.261Z,350.6820
2022-08-19T01:33:06.371Z,351.0570
2022-08-19T01:33:17.412Z,354.8540
2022-08-19T01:33:28.482Z,355.6230
2022-08-19T01:33:39.640Z,356.3960
2022-08-19T01:33:50.846Z,358.7340
2022-08-19T01:34:02.062Z,358.7340
2022-08-19T01:34:13.242Z,360.3090
2022-08-19T01:34:24.294Z,359.1260
2022-08-19T01:34:35.362Z,361.8990
2022-08-19T01:34:46.412Z,359.1260
2022-08-19T01:34:57.512Z,359.9140
2022-08-19T01:35:08.602Z,364.7150
2022-08-19T01:35:19.648Z,363.9060
2022-08-19T01:35:30.692Z,364.7150
2022-08-19T01:35:41.756Z,367.1640
2022-08-19T01:35:52.852Z,366.7530
2022-08-19T01:36:03.955Z,362.6990
2022-08-19T01:36:15.593Z,367.5750
2022-08-19T01:36:26.711Z,367.5750
2022-08-19T01:36:37.883Z,367.5750
2022-08-19T01:36:49.088Z,368.4000
2022-08-19T01:37:00.276Z,367.5750
2022-08-19T01:37:11.490Z,370.4800
2022-08-19T01:37:24.935Z,370.4800
2022-08-19T01:37:38.402Z,363.5030
2022-08-19T01:37:49.564Z,363.9060
2022-08-19T01:38:00.774Z,363.9060
2022-08-19T01:38:11.826Z,363.9060
2022-08-19T01:38:23.550Z,365.1210
2022-08-19T01:38:35.388Z,364.3100
2022-08-19T01:38:52.343Z,362.6990
2022-08-19T01:39:03.499Z,361.8990
2022-08-19T01:39:14.563Z,365.1210
2022-08-19T01:39:25.629Z,364.3100
2022-08-19T01:39:36.717Z,366.3440
2022-08-19T01:39:47.844Z,365.9350
2022-08-19T01:39:58.987Z,362.6990
2022-08-19T01:40:10.152Z,367.9870
2022-08-19T01:40:21.236Z,368.8140
2022-08-19T01:40:32.285Z,367.1640
2022-08-19T01:40:43.351Z,365.5270
2022-08-19T01:40:54.378Z,367.1640
2022-08-19T01:41:10.902Z,369.2290
2022-08-19T01:41:22.378Z,365.5270
2022-08-19T01:41:33.485Z,362.6990
2022-08-19T01:41:44.564Z,365.9350
2022-08-19T01:41:55.658Z,365.9350
2022-08-19T01:42:06.884Z,365.9350
2022-08-19T01:42:17.949Z,366.7530
2022-08-19T01:42:30.600Z,368.4000
2022-08-19T01:42:41.771Z,365.9350
2022-08-19T01:42:53.122Z,367.9870
2022-08-19T01:43:04.263Z,365.5270
2022-08-19T01:43:15.339Z,369.2290
2022-08-19T01:43:26.397Z,364.7150
2022-08-19T01:43:37.469Z,370.0620
2022-08-19T01:44:10.398Z,365.1210
2022-08-19T01:44:17.413Z,357.9510
2022-08-19T01:44:28.330Z,355.2380
2022-08-19T01:44:39.379Z,353.3250
2022-08-19T01:44:50.450Z,357.1720
2022-08-19T01:45:01.503Z,357.1720
2022-08-19T01:45:12.567Z,359.1260
2022-08-19T01:45:23.659Z,359.9140
2022-08-19T01:45:34.738Z,363.5030
2022-08-19T01:45:45.789Z,361.8990
2022-08-19T01:45:56.849Z,361.5000
2022-08-19T01:46:07.915Z,363.9060
2022-08-19T01:46:22.092Z,363.5030
2022-08-19T01:46:36.011Z,358.7340
2022-08-19T01:46:47.178Z,359.5200
2022-08-19T01:46:58.384Z,358.3420
2022-08-19T01:47:09.579Z,359.5200
2022-08-19T01:47:20.779Z,362.2990
2022-08-19T01:47:31.820Z,363.5030
2022-08-19T01:47:42.859Z,365.5270
2022-08-19T01:48:02.323Z,361.1020
2022-08-19T01:48:13.915Z,359.5200
2022-08-19T01:48:24.968Z,358.7340
2022-08-19T01:48:36.036Z,360.3090
2022-08-19T01:48:47.098Z,361.8990
2022-08-19T01:48:58.143Z,362.6990
2022-08-19T01:49:09.259Z,361.5000
2022-08-19T01:49:20.458Z,363.1000
2022-08-19T01:49:31.677Z,366.7530
2022-08-19T01:49:42.860Z,364.7150
2022-08-19T01:49:53.917Z,364.3100
2022-08-19T01:50:04.982Z,365.1210
2022-08-19T01:50:16.139Z,365.1210
2022-08-19T01:50:27.338Z,363.9060
2022-08-19T01:50:38.379Z,365.9350
2022-08-19T01:50:49.436Z,366.7530
2022-08-19T01:51:00.609Z,367.5750
2022-08-19T01:51:11.836Z,366.7530
2022-08-19T01:51:23.020Z,370.0620
2022-08-19T01:51:39.923Z,368.4000
2022-08-19T01:51:51.204Z,363.5030
2022-08-19T01:52:02.379Z,361.5000
2022-08-19T01:52:13.579Z,365.9350
2022-08-19T01:52:24.779Z,366.3440
2022-08-19T01:52:35.979Z,367.9870
2022-08-19T01:52:47.215Z,366.3440
2022-08-19T01:53:06.909Z,361.1020
2022-08-19T01:53:19.196Z,357.1720
2022-08-19T01:53:33.817Z,359.5200
2022-08-19T01:53:45.146Z,360.3090
2022-08-19T01:53:56.982Z,356.3960
2022-08-19T01:54:08.155Z,359.5200
2022-08-19T01:54:27.277Z,360.3090
2022-08-19T01:54:36.316Z,359.1260
2022-08-19T01:54:47.517Z,359.1260
2022-08-19T01:54:58.591Z,358.3420
2022-08-19T01:55:09.688Z,358.7340
2022-08-19T01:55:20.779Z,359.5200
2022-08-19T01:55:31.979Z,361.1020
2022-08-19T01:55:43.180Z,362.6990
2022-08-19T01:55:54.235Z,361.8990
2022-08-19T01:56:05.309Z,361.5000
2022-08-19T01:56:16.404Z,365.1210
2022-08-19T01:56:27.473Z,363.5030
2022-08-19T01:56:38.510Z,363.5030
2022-08-19T01:56:49.712Z,364.3100
2022-08-19T01:57:02.221Z,365.1210
2022-08-19T01:57:13.275Z,364.3100
2022-08-19T01:57:24.319Z,361.1020
2022-08-19T01:57:35.498Z,362.6990
2022-08-19T01:57:46.546Z,365.1210
2022-08-19T01:57:57.578Z,366.7530
2022-08-19T01:58:08.650Z,365.9350
2022-08-19T01:58:19.729Z,363.5030
2022-08-19T01:58:30.769Z,364.7150
2022-08-19T01:58:41.836Z,366.7530
2022-08-19T01:58:52.957Z,366.7530
2022-08-19T01:59:04.128Z,365.5270
2022-08-19T01:59:15.218Z,366.3440
2022-08-19T01:59:26.327Z,366.7530
2022-08-19T01:59:37.386Z,365.1210
2022-08-19T01:59:48.449Z,367.5750
2022-08-19T01:59:59.498Z,369.2290
2022-08-19T02:00:10.557Z,365.9350
2022-08-19T02:00:21.629Z,369.2290
2022-08-19T02:00:32.767Z,367.5750
2022-08-19T02:00:43.967Z,369.2290
2022-08-19T02:00:55.010Z,366.7530
2022-08-19T02:01:06.084Z,367.9870
2022-08-19T02:01:17.244Z,368.4000
2022-08-19T02:01:28.339Z,367.5750
2022-08-19T02:01:42.664Z,365.1210
2022-08-19T02:01:53.825Z,366.7530
2022-08-19T02:02:04.972Z,366.7530
2022-08-19T02:02:16.022Z,366.3440
2022-08-19T02:02:27.079Z,368.4000
2022-08-19T02:02:38.128Z,367.5750
2022-08-19T02:02:49.225Z,365.9350
2022-08-19T02:03:00.299Z,366.7530
2022-08-19T02:03:11.379Z,367.5750
2022-08-19T02:03:22.446Z,367.5750
2022-08-19T02:03:33.576Z,367.9870
2022-08-19T02:03:44.648Z,369.2290
2022-08-19T02:03:56.935Z,369.2290
2022-08-19T02:04:09.140Z,365.9350
2022-08-19T02:04:20.295Z,365.9350
2022-08-19T02:04:31.336Z,366.3440
2022-08-19T02:04:42.377Z,366.7530
2022-08-19T02:04:53.437Z,364.3100
2022-08-19T02:05:04.498Z,366.3440
2022-08-19T02:05:15.648Z,367.1640
2022-08-19T02:05:26.849Z,367.9870
2022-08-19T02:05:38.047Z,369.2290
2022-08-19T02:05:49.268Z,368.8140
2022-08-19T02:06:00.449Z,365.9350
2022-08-19T02:06:11.501Z,369.2290
2022-08-19T02:06:22.557Z,367.1640
2022-08-19T02:06:38.248Z,361.8990
2022-08-19T02:06:49.419Z,362.2990
2022-08-19T02:07:00.476Z,366.7530
2022-08-19T02:07:11.612Z,365.9350
2022-08-19T02:07:22.699Z,365.9350
2022-08-19T02:07:33.913Z,368.8140
2022-08-19T02:07:45.095Z,364.7150
2022-08-19T02:07:56.129Z,365.9350
2022-08-19T02:08:07.207Z,368.8140
2022-08-19T02:08:18.368Z,370.4800
2022-08-19T02:08:29.578Z,367.5750
2022-08-19T02:08:40.655Z,366.7530
2022-08-19T02:08:51.718Z,369.6450
2022-08-19T02:09:05.417Z,367.1640
2022-08-19T02:09:16.607Z,368.4000
2022-08-19T02:09:27.808Z,366.7530
2022-08-19T02:09:39.007Z,367.1640
2022-08-19T02:09:50.207Z,367.1640
2022-08-19T02:10:01.789Z,366.7530
2022-08-19T02:10:16.659Z,364.3100
2022-08-19T02:10:28.017Z,364.3100
2022-08-19T02:10:39.169Z,362.2990
2022-08-19T02:10:50.371Z,367.1640
2022-08-19T02:11:01.418Z,365.1210
2022-08-19T02:11:12.456Z,365.1210
2022-08-19T02:11:23.658Z,367.5750
2022-08-19T02:11:34.849Z,366.7530
2022-08-19T02:11:45.888Z,366.3440
2022-08-19T02:11:56.929Z,365.9350
2022-08-19T02:12:08.127Z,368.4000
2022-08-19T02:12:19.337Z,368.4000
2022-08-19T02:12:30.388Z,365.5270
2022-08-19T02:12:42.407Z,367.5750
2022-08-19T02:12:53.884Z,366.7530
2022-08-19T02:13:05.137Z,366.3440
2022-08-19T02:13:16.956Z,364.7150
2022-08-19T02:13:33.888Z,360.3090
2022-08-19T02:13:44.948Z,363.9060
2022-08-19T02:13:55.977Z,362.6990
2022-08-19T02:14:07.168Z,361.1020
2022-08-19T02:14:18.207Z,362.2990
2022-08-19T02:14:29.248Z,365.9350
2022-08-19T02:14:40.448Z,364.7150
2022-08-19T02:14:51.498Z,364.7150
2022-08-19T02:15:02.547Z,362.6990
2022-08-19T02:15:13.729Z,362.2990
2022-08-19T02:15:24.837Z,367.1640
2022-08-19T02:15:35.918Z,363.5030
2022-08-19T02:15:46.981Z,366.3440
2022-08-19T02:15:58.014Z,365.9350
2022-08-19T02:16:09.088Z,368.4000
2022-08-19T02:16:20.156Z,366.7530
2022-08-19T02:16:31.243Z,366.7530
2022-08-19T02:16:42.288Z,365.9350